sensor_id;sensor_type;location;lat;lon;timestamp;temperature;humidity
1590;DHT22;788;48.720;9.158;2022-07-10T00:00:07;17.00;99.90
1590;DHT22;788;48.720;9.158;2022-07-10T00:02:34;17.00;99.90
1590;DHT22;788;48.720;9.158;2022-07-10T00:05:03;17.00;99.90
1590;DHT22;788;48.720;9.158;2022-07-10T00:07:30;17.10;99.90
1590;DHT22;788;48.720;9.158;2022-07-10T00:09:56;17.10;99.90
1590;DHT22;788;48.720;9.158;2022-07-10T00:12:23;17.10;99.90
1590;DHT22;788;48.720;9.158;2022-07-10T00:14:50;17.20;99.90
1590;DHT22;788;48.720;9.158;2022-07-10T00:17:17;17.30;99.90
1590;DHT22;788;48.720;9.158;2022-07-10T00:19:43;17.30;99.90
1590;DHT22;788;48.720;9.158;2022-07-10T00:22:11;17.20;99.90
1590;DHT22;788;48.720;9.158;2022-07-10T00:24:38;17.20;99.90
1590;DHT22;788;48.720;9.158;2022-07-10T00:27:05;17.20;99.90
1590;DHT22;788;48.720;9.158;2022-07-10T00:29:32;17.20;99.90
1590;DHT22;788;48.720;9.158;2022-07-10T00:31:59;17.10;99.90
1590;DHT22;788;48.720;9.158;2022-07-10T00:34:25;17.20;99.90
1590;DHT22;788;48.720;9.158;2022-07-10T00:36:52;17.20;99.90
1590;DHT22;788;48.720;9.158;2022-07-10T00:39:20;17.20;99.90
1590;DHT22;788;48.720;9.158;2022-07-10T00:41:47;17.20;99.90
1590;DHT22;788;48.720;9.158;2022-07-10T00:44:14;17.20;99.90
1590;DHT22;788;48.720;9.158;2022-07-10T00:46:40;17.20;99.90
1590;DHT22;788;48.720;9.158;2022-07-10T00:49:07;17.20;99.90
1590;DHT22;788;48.720;9.158;2022-07-10T00:51:34;17.20;99.90
1590;DHT22;788;48.720;9.158;2022-07-10T00:54:01;17.20;99.90
1590;DHT22;788;48.720;9.158;2022-07-10T00:56:30;17.20;99.90
1590;DHT22;788;48.720;9.158;2022-07-10T00:58:57;17.30;99.90
1590;DHT22;788;48.720;9.158;2022-07-10T01:01:24;17.20;99.90
1590;DHT22;788;48.720;9.158;2022-07-10T01:03:51;17.20;99.90
1590;DHT22;788;48.720;9.158;2022-07-10T01:06:18;17.20;99.90
1590;DHT22;788;48.720;9.158;2022-07-10T01:08:45;17.20;99.90
1590;DHT22;788;48.720;9.158;2022-07-10T01:11:13;17.10;99.90
1590;DHT22;788;48.720;9.158;2022-07-10T01:13:41;17.10;99.90
1590;DHT22;788;48.720;9.158;2022-07-10T01:16:08;17.10;99.90
1590;DHT22;788;48.720;9.158;2022-07-10T01:18:35;17.00;99.90
1590;DHT22;788;48.720;9.158;2022-07-10T01:21:03;17.00;99.90
1590;DHT22;788;48.720;9.158;2022-07-10T01:23:30;17.00;99.90
1590;DHT22;788;48.720;9.158;2022-07-10T01:25:57;16.90;99.90
1590;DHT22;788;48.720;9.158;2022-07-10T01:28:25;16.80;99.90
1590;DHT22;788;48.720;9.158;2022-07-10T01:30:54;16.80;99.90
1590;DHT22;788;48.720;9.158;2022-07-10T01:33:22;16.70;99.90
1590;DHT22;788;48.720;9.158;2022-07-10T01:35:48;16.70;99.90
1590;DHT22;788;48.720;9.158;2022-07-10T01:38:16;16.70;99.90
1590;DHT22;788;48.720;9.158;2022-07-10T01:40:43;16.60;99.90
1590;DHT22;788;48.720;9.158;2022-07-10T01:43:10;16.60;99.90
1590;DHT22;788;48.720;9.158;2022-07-10T01:45:36;16.60;99.90
1590;DHT22;788;48.720;9.158;2022-07-10T01:48:03;16.50;99.90
1590;DHT22;788;48.720;9.158;2022-07-10T01:50:30;16.40;99.90
1590;DHT22;788;48.720;9.158;2022-07-10T01:52:57;16.30;99.90
1590;DHT22;788;48.720;9.158;2022-07-10T01:55:25;16.20;99.90
1590;DHT22;788;48.720;9.158;2022-07-10T01:57:52;16.20;99.90
1590;DHT22;788;48.720;9.158;2022-07-10T02:00:19;16.10;99.90
1590;DHT22;788;48.720;9.158;2022-07-10T02:02:46;16.10;99.90
1590;DHT22;788;48.720;9.158;2022-07-10T02:05:32;16.10;99.90
1590;DHT22;788;48.720;9.158;2022-07-10T02:07:58;16.10;99.90
1590;DHT22;788;48.720;9.158;2022-07-10T02:10:26;16.10;99.90
1590;DHT22;788;48.720;9.158;2022-07-10T02:12:53;16.00;99.90
1590;DHT22;788;48.720;9.158;2022-07-10T02:15:21;15.90;99.90
1590;DHT22;788;48.720;9.158;2022-07-10T02:17:48;15.90;99.90
1590;DHT22;788;48.720;9.158;2022-07-10T02:20:15;15.90;99.90
1590;DHT22;788;48.720;9.158;2022-07-10T02:22:42;15.90;99.90
1590;DHT22;788;48.720;9.158;2022-07-10T02:25:09;15.80;99.90
1590;DHT22;788;48.720;9.158;2022-07-10T02:27:37;15.80;99.90
1590;DHT22;788;48.720;9.158;2022-07-10T02:30:05;15.70;99.90
1590;DHT22;788;48.720;9.158;2022-07-10T02:32:32;15.70;99.90
1590;DHT22;788;48.720;9.158;2022-07-10T02:34:59;15.70;99.90
1590;DHT22;788;48.720;9.158;2022-07-10T02:37:26;15.70;99.90
1590;DHT22;788;48.720;9.158;2022-07-10T02:39:52;15.60;99.90
1590;DHT22;788;48.720;9.158;2022-07-10T02:42:19;15.70;99.90
1590;DHT22;788;48.720;9.158;2022-07-10T02:44:47;15.70;99.90
1590;DHT22;788;48.720;9.158;2022-07-10T02:47:14;15.70;99.90
1590;DHT22;788;48.720;9.158;2022-07-10T02:49:40;15.70;99.90
1590;DHT22;788;48.720;9.158;2022-07-10T02:52:07;15.80;99.90
1590;DHT22;788;48.720;9.158;2022-07-10T02:54:34;15.80;99.90
1590;DHT22;788;48.720;9.158;2022-07-10T02:57:01;15.90;99.90
1590;DHT22;788;48.720;9.158;2022-07-10T02:59:28;15.80;99.90
1590;DHT22;788;48.720;9.158;2022-07-10T03:01:56;15.90;99.90
1590;DHT22;788;48.720;9.158;2022-07-10T03:04:22;15.90;99.90
1590;DHT22;788;48.720;9.158;2022-07-10T03:06:49;15.80;99.90
1590;DHT22;788;48.720;9.158;2022-07-10T03:09:16;15.80;99.90
1590;DHT22;788;48.720;9.158;2022-07-10T03:11:43;15.80;99.90
1590;DHT22;788;48.720;9.158;2022-07-10T03:14:10;15.80;99.90
1590;DHT22;788;48.720;9.158;2022-07-10T03:16:36;15.80;99.90
1590;DHT22;788;48.720;9.158;2022-07-10T03:19:04;15.80;99.90
1590;DHT22;788;48.720;9.158;2022-07-10T03:21:31;15.80;99.90
1590;DHT22;788;48.720;9.158;2022-07-10T03:23:58;15.80;99.90
1590;DHT22;788;48.720;9.158;2022-07-10T03:26:25;15.80;99.90
1590;DHT22;788;48.720;9.158;2022-07-10T03:28:52;15.70;99.90
1590;DHT22;788;48.720;9.158;2022-07-10T03:31:18;15.80;99.90
1590;DHT22;788;48.720;9.158;2022-07-10T03:33:45;15.70;99.90
1590;DHT22;788;48.720;9.158;2022-07-10T03:36:13;15.70;99.90
1590;DHT22;788;48.720;9.158;2022-07-10T03:38:40;15.80;99.90
1590;DHT22;788;48.720;9.158;2022-07-10T03:41:07;15.80;99.90
1590;DHT22;788;48.720;9.158;2022-07-10T03:43:33;15.80;99.90
1590;DHT22;788;48.720;9.158;2022-07-10T03:46:00;15.80;99.90
1590;DHT22;788;48.720;9.158;2022-07-10T03:48:27;15.80;99.90
1590;DHT22;788;48.720;9.158;2022-07-10T03:50:54;15.70;99.90
1590;DHT22;788;48.720;9.158;2022-07-10T03:53:22;15.80;99.90
1590;DHT22;788;48.720;9.158;2022-07-10T03:55:48;15.80;99.90
1590;DHT22;788;48.720;9.158;2022-07-10T03:58:15;15.80;99.90
1590;DHT22;788;48.720;9.158;2022-07-10T04:00:41;15.80;99.90
1590;DHT22;788;48.720;9.158;2022-07-10T04:03:08;15.80;99.90
1590;DHT22;788;48.720;9.158;2022-07-10T04:05:35;15.70;99.90
1590;DHT22;788;48.720;9.158;2022-07-10T04:08:03;15.70;99.90
1590;DHT22;788;48.720;9.158;2022-07-10T04:10:31;15.70;99.90
1590;DHT22;788;48.720;9.158;2022-07-10T04:12:58;15.60;99.90
1590;DHT22;788;48.720;9.158;2022-07-10T04:15:26;15.50;99.90
1590;DHT22;788;48.720;9.158;2022-07-10T04:17:53;15.50;99.90
1590;DHT22;788;48.720;9.158;2022-07-10T04:20:20;15.40;99.90
1590;DHT22;788;48.720;9.158;2022-07-10T04:22:47;15.40;99.90
1590;DHT22;788;48.720;9.158;2022-07-10T04:25:14;15.40;99.90
1590;DHT22;788;48.720;9.158;2022-07-10T04:27:42;15.40;99.90
1590;DHT22;788;48.720;9.158;2022-07-10T04:30:10;15.30;99.90
1590;DHT22;788;48.720;9.158;2022-07-10T04:32:37;15.30;99.90
1590;DHT22;788;48.720;9.158;2022-07-10T04:35:04;15.30;99.90
1590;DHT22;788;48.720;9.158;2022-07-10T04:37:31;15.30;99.90
1590;DHT22;788;48.720;9.158;2022-07-10T04:39:59;15.30;99.90
1590;DHT22;788;48.720;9.158;2022-07-10T04:42:26;15.30;99.90
1590;DHT22;788;48.720;9.158;2022-07-10T04:44:54;15.30;99.90
1590;DHT22;788;48.720;9.158;2022-07-10T04:47:21;15.30;99.90
1590;DHT22;788;48.720;9.158;2022-07-10T04:49:48;15.30;99.90
1590;DHT22;788;48.720;9.158;2022-07-10T04:52:14;15.30;99.90
1590;DHT22;788;48.720;9.158;2022-07-10T04:54:41;15.40;99.90
1590;DHT22;788;48.720;9.158;2022-07-10T04:57:08;15.40;99.90
1590;DHT22;788;48.720;9.158;2022-07-10T04:59:35;15.40;99.90
1590;DHT22;788;48.720;9.158;2022-07-10T05:02:03;15.40;99.90
1590;DHT22;788;48.720;9.158;2022-07-10T05:04:30;15.40;99.90
1590;DHT22;788;48.720;9.158;2022-07-10T05:06:57;15.40;99.90
1590;DHT22;788;48.720;9.158;2022-07-10T05:09:24;15.50;99.90
1590;DHT22;788;48.720;9.158;2022-07-10T05:11:50;15.40;99.90
1590;DHT22;788;48.720;9.158;2022-07-10T05:14:17;15.50;99.90
1590;DHT22;788;48.720;9.158;2022-07-10T05:16:44;15.50;99.90
1590;DHT22;788;48.720;9.158;2022-07-10T05:19:12;15.50;99.90
1590;DHT22;788;48.720;9.158;2022-07-10T05:21:38;15.50;99.90
1590;DHT22;788;48.720;9.158;2022-07-10T05:24:06;15.40;99.90
1590;DHT22;788;48.720;9.158;2022-07-10T05:26:32;15.50;99.90
1590;DHT22;788;48.720;9.158;2022-07-10T05:28:59;15.40;99.90
1590;DHT22;788;48.720;9.158;2022-07-10T05:31:26;15.50;99.90
1590;DHT22;788;48.720;9.158;2022-07-10T05:33:52;15.50;99.90
1590;DHT22;788;48.720;9.158;2022-07-10T05:36:20;15.40;99.90
1590;DHT22;788;48.720;9.158;2022-07-10T05:38:47;15.50;99.90
1590;DHT22;788;48.720;9.158;2022-07-10T05:41:14;15.60;99.90
1590;DHT22;788;48.720;9.158;2022-07-10T05:43:40;15.60;99.90
1590;DHT22;788;48.720;9.158;2022-07-10T05:46:07;15.60;99.90
1590;DHT22;788;48.720;9.158;2022-07-10T05:48:34;15.70;99.90
1590;DHT22;788;48.720;9.158;2022-07-10T05:51:01;15.70;99.90
1590;DHT22;788;48.720;9.158;2022-07-10T05:53:29;15.70;99.90
1590;DHT22;788;48.720;9.158;2022-07-10T05:55:59;15.80;99.90
1590;DHT22;788;48.720;9.158;2022-07-10T05:58:26;15.70;99.90
1590;DHT22;788;48.720;9.158;2022-07-10T06:00:53;15.70;99.90
1590;DHT22;788;48.720;9.158;2022-07-10T06:03:20;15.60;99.90
1590;DHT22;788;48.720;9.158;2022-07-10T06:05:46;15.60;99.90
1590;DHT22;788;48.720;9.158;2022-07-10T06:08:13;15.60;99.90
1590;DHT22;788;48.720;9.158;2022-07-10T06:10:41;15.50;99.90
1590;DHT22;788;48.720;9.158;2022-07-10T06:13:09;15.60;99.90
1590;DHT22;788;48.720;9.158;2022-07-10T06:15:36;15.50;99.90
1590;DHT22;788;48.720;9.158;2022-07-10T06:18:03;15.70;99.90
1590;DHT22;788;48.720;9.158;2022-07-10T06:20:30;15.90;99.90
1590;DHT22;788;48.720;9.158;2022-07-10T06:22:56;16.10;99.90
1590;DHT22;788;48.720;9.158;2022-07-10T06:25:23;16.10;99.90
1590;DHT22;788;48.720;9.158;2022-07-10T06:27:52;16.20;99.90
1590;DHT22;788;48.720;9.158;2022-07-10T06:30:18;16.40;99.90
1590;DHT22;788;48.720;9.158;2022-07-10T06:32:45;16.40;99.90
1590;DHT22;788;48.720;9.158;2022-07-10T06:35:12;16.50;99.90
1590;DHT22;788;48.720;9.158;2022-07-10T06:37:38;16.40;99.90
1590;DHT22;788;48.720;9.158;2022-07-10T06:40:06;16.30;99.90
1590;DHT22;788;48.720;9.158;2022-07-10T06:42:33;16.30;99.90
1590;DHT22;788;48.720;9.158;2022-07-10T06:45:01;16.30;99.90
1590;DHT22;788;48.720;9.158;2022-07-10T06:47:28;16.30;99.90
1590;DHT22;788;48.720;9.158;2022-07-10T06:50:12;16.50;99.90
1590;DHT22;788;48.720;9.158;2022-07-10T06:52:39;16.50;99.90
1590;DHT22;788;48.720;9.158;2022-07-10T06:55:06;16.50;99.90
1590;DHT22;788;48.720;9.158;2022-07-10T06:57:33;16.30;99.90
1590;DHT22;788;48.720;9.158;2022-07-10T07:00:02;16.40;99.90
1590;DHT22;788;48.720;9.158;2022-07-10T07:02:29;16.40;99.90
1590;DHT22;788;48.720;9.158;2022-07-10T07:04:56;16.30;99.90
1590;DHT22;788;48.720;9.158;2022-07-10T07:07:23;16.10;99.90
1590;DHT22;788;48.720;9.158;2022-07-10T07:09:50;16.10;99.90
1590;DHT22;788;48.720;9.158;2022-07-10T07:12:16;15.90;99.90
1590;DHT22;788;48.720;9.158;2022-07-10T07:14:43;15.90;99.90
1590;DHT22;788;48.720;9.158;2022-07-10T07:17:12;16.10;99.90
1590;DHT22;788;48.720;9.158;2022-07-10T07:19:40;16.30;99.90
1590;DHT22;788;48.720;9.158;2022-07-10T07:22:25;16.40;99.90
1590;DHT22;788;48.720;9.158;2022-07-10T07:25:10;16.60;99.90
1590;DHT22;788;48.720;9.158;2022-07-10T07:27:38;16.80;99.90
1590;DHT22;788;48.720;9.158;2022-07-10T07:30:06;16.80;99.90
1590;DHT22;788;48.720;9.158;2022-07-10T07:32:34;16.80;99.90
1590;DHT22;788;48.720;9.158;2022-07-10T07:35:01;16.80;99.90
1590;DHT22;788;48.720;9.158;2022-07-10T07:37:35;16.60;99.90
1590;DHT22;788;48.720;9.158;2022-07-10T07:40:03;16.60;99.90
1590;DHT22;788;48.720;9.158;2022-07-10T07:42:30;16.40;99.90
1590;DHT22;788;48.720;9.158;2022-07-10T07:44:57;16.40;99.90
1590;DHT22;788;48.720;9.158;2022-07-10T07:47:24;16.40;99.90
1590;DHT22;788;48.720;9.158;2022-07-10T07:49:52;16.50;99.90
1590;DHT22;788;48.720;9.158;2022-07-10T07:52:18;16.60;99.90
1590;DHT22;788;48.720;9.158;2022-07-10T07:54:45;16.60;99.90
1590;DHT22;788;48.720;9.158;2022-07-10T07:57:12;16.50;99.90
1590;DHT22;788;48.720;9.158;2022-07-10T07:59:38;16.60;99.90
1590;DHT22;788;48.720;9.158;2022-07-10T08:02:06;16.80;99.90
1590;DHT22;788;48.720;9.158;2022-07-10T08:04:33;17.00;99.90
1590;DHT22;788;48.720;9.158;2022-07-10T08:07:01;17.20;99.90
1590;DHT22;788;48.720;9.158;2022-07-10T08:09:27;17.60;99.90
1590;DHT22;788;48.720;9.158;2022-07-10T08:11:54;17.60;99.90
1590;DHT22;788;48.720;9.158;2022-07-10T08:14:21;17.60;99.90
1590;DHT22;788;48.720;9.158;2022-07-10T08:16:47;17.50;99.90
1590;DHT22;788;48.720;9.158;2022-07-10T08:19:16;17.40;99.90
1590;DHT22;788;48.720;9.158;2022-07-10T08:21:43;17.50;99.90
1590;DHT22;788;48.720;9.158;2022-07-10T08:24:11;17.50;99.90
1590;DHT22;788;48.720;9.158;2022-07-10T08:26:38;17.80;99.30
1590;DHT22;788;48.720;9.158;2022-07-10T08:29:04;17.80;98.30
1590;DHT22;788;48.720;9.158;2022-07-10T08:31:31;17.60;98.70
1590;DHT22;788;48.720;9.158;2022-07-10T08:33:58;17.40;99.60
1590;DHT22;788;48.720;9.158;2022-07-10T08:36:25;17.30;98.90
1590;DHT22;788;48.720;9.158;2022-07-10T08:38:52;17.20;98.60
1590;DHT22;788;48.720;9.158;2022-07-10T08:41:22;17.20;98.80
1590;DHT22;788;48.720;9.158;2022-07-10T08:43:50;17.40;98.40
1590;DHT22;788;48.720;9.158;2022-07-10T08:46:18;17.60;98.80
1590;DHT22;788;48.720;9.158;2022-07-10T08:48:47;17.60;99.10
1590;DHT22;788;48.720;9.158;2022-07-10T08:51:20;17.60;99.60
1590;DHT22;788;48.720;9.158;2022-07-10T08:53:51;17.80;98.90
1590;DHT22;788;48.720;9.158;2022-07-10T08:56:18;17.90;98.50
1590;DHT22;788;48.720;9.158;2022-07-10T08:58:46;17.90;99.20
1590;DHT22;788;48.720;9.158;2022-07-10T09:01:14;18.10;99.20
1590;DHT22;788;48.720;9.158;2022-07-10T09:03:41;18.10;97.40
1590;DHT22;788;48.720;9.158;2022-07-10T09:06:07;18.10;97.30
1590;DHT22;788;48.720;9.158;2022-07-10T09:08:34;17.90;97.20
1590;DHT22;788;48.720;9.158;2022-07-10T09:11:13;17.90;97.80
1590;DHT22;788;48.720;9.158;2022-07-10T09:13:49;17.90;98.00
1590;DHT22;788;48.720;9.158;2022-07-10T09:16:21;18.10;97.40
1590;DHT22;788;48.720;9.158;2022-07-10T09:18:48;18.10;96.00
1590;DHT22;788;48.720;9.158;2022-07-10T09:21:15;18.30;96.30
1590;DHT22;788;48.720;9.158;2022-07-10T09:23:42;18.50;96.90
1590;DHT22;788;48.720;9.158;2022-07-10T09:26:08;18.40;95.90
1590;DHT22;788;48.720;9.158;2022-07-10T09:28:35;18.10;96.10
1590;DHT22;788;48.720;9.158;2022-07-10T09:31:04;18.10;96.50
1590;DHT22;788;48.720;9.158;2022-07-10T09:33:32;18.10;96.80
1590;DHT22;788;48.720;9.158;2022-07-10T09:36:02;18.20;96.30
1590;DHT22;788;48.720;9.158;2022-07-10T09:38:50;18.40;96.80
1590;DHT22;788;48.720;9.158;2022-07-10T09:41:19;18.50;96.50
1590;DHT22;788;48.720;9.158;2022-07-10T09:43:47;18.50;95.80
1590;DHT22;788;48.720;9.158;2022-07-10T09:46:17;18.70;95.20
1590;DHT22;788;48.720;9.158;2022-07-10T09:48:44;18.60;94.90
1590;DHT22;788;48.720;9.158;2022-07-10T09:51:11;18.50;95.30
1590;DHT22;788;48.720;9.158;2022-07-10T09:53:39;18.60;95.50
1590;DHT22;788;48.720;9.158;2022-07-10T09:56:07;18.70;94.70
1590;DHT22;788;48.720;9.158;2022-07-10T09:58:35;18.80;94.10
1590;DHT22;788;48.720;9.158;2022-07-10T10:01:03;18.70;93.80
1590;DHT22;788;48.720;9.158;2022-07-10T10:03:34;18.40;94.20
1590;DHT22;788;48.720;9.158;2022-07-10T10:06:10;18.50;95.00
1590;DHT22;788;48.720;9.158;2022-07-10T10:08:44;18.50;94.50
1590;DHT22;788;48.720;9.158;2022-07-10T10:11:14;18.30;94.30
1590;DHT22;788;48.720;9.158;2022-07-10T10:13:43;18.20;94.40
1590;DHT22;788;48.720;9.158;2022-07-10T10:16:10;18.30;95.00
1590;DHT22;788;48.720;9.158;2022-07-10T10:18:39;18.70;95.70
1590;DHT22;788;48.720;9.158;2022-07-10T10:21:27;19.10;93.00
1590;DHT22;788;48.720;9.158;2022-07-10T10:23:54;19.30;93.80
1590;DHT22;788;48.720;9.158;2022-07-10T10:26:22;19.30;93.10
1590;DHT22;788;48.720;9.158;2022-07-10T10:28:51;19.10;93.00
1590;DHT22;788;48.720;9.158;2022-07-10T10:31:18;19.00;92.80
1590;DHT22;788;48.720;9.158;2022-07-10T10:33:48;19.00;93.10
1590;DHT22;788;48.720;9.158;2022-07-10T10:36:44;19.10;92.60
1590;DHT22;788;48.720;9.158;2022-07-10T10:39:12;19.20;93.10
1590;DHT22;788;48.720;9.158;2022-07-10T10:41:41;19.50;92.20
1590;DHT22;788;48.720;9.158;2022-07-10T10:44:35;19.40;91.40
1590;DHT22;788;48.720;9.158;2022-07-10T10:47:04;19.60;90.50
1590;DHT22;788;48.720;9.158;2022-07-10T10:49:54;19.60;90.40
1590;DHT22;788;48.720;9.158;2022-07-10T10:52:24;19.80;90.30
1590;DHT22;788;48.720;9.158;2022-07-10T10:55:04;19.50;90.00
1590;DHT22;788;48.720;9.158;2022-07-10T10:57:36;19.40;90.50
1590;DHT22;788;48.720;9.158;2022-07-10T11:00:06;19.60;90.40
1590;DHT22;788;48.720;9.158;2022-07-10T11:02:35;19.60;90.20
1590;DHT22;788;48.720;9.158;2022-07-10T11:05:41;19.80;90.30
1590;DHT22;788;48.720;9.158;2022-07-10T11:08:09;20.00;90.20
1590;DHT22;788;48.720;9.158;2022-07-10T11:10:38;20.20;90.00
1590;DHT22;788;48.720;9.158;2022-07-10T11:13:05;20.00;90.00
1590;DHT22;788;48.720;9.158;2022-07-10T11:15:34;19.70;90.40
1590;DHT22;788;48.720;9.158;2022-07-10T11:18:07;19.50;91.10
1590;DHT22;788;48.720;9.158;2022-07-10T11:20:35;19.90;91.50
1590;DHT22;788;48.720;9.158;2022-07-10T11:26:24;20.80;88.30
1590;DHT22;788;48.720;9.158;2022-07-10T11:28:56;21.00;86.70
1590;DHT22;788;48.720;9.158;2022-07-10T11:31:26;21.60;88.70
1590;DHT22;788;48.720;9.158;2022-07-10T11:33:54;22.20;83.50
1590;DHT22;788;48.720;9.158;2022-07-10T11:36:23;22.10;80.40
1590;DHT22;788;48.720;9.158;2022-07-10T11:38:57;22.00;79.70
1590;DHT22;788;48.720;9.158;2022-07-10T11:41:26;21.80;79.00
1590;DHT22;788;48.720;9.158;2022-07-10T11:43:54;21.80;76.30
1590;DHT22;788;48.720;9.158;2022-07-10T11:46:22;21.90;76.70
1590;DHT22;788;48.720;9.158;2022-07-10T11:48:50;21.80;75.60
1590;DHT22;788;48.720;9.158;2022-07-10T11:51:21;21.50;75.90
1590;DHT22;788;48.720;9.158;2022-07-10T11:53:56;21.40;77.40
1590;DHT22;788;48.720;9.158;2022-07-10T11:56:24;21.80;77.30
1590;DHT22;788;48.720;9.158;2022-07-10T11:58:56;22.00;75.80
1590;DHT22;788;48.720;9.158;2022-07-10T12:01:24;22.50;75.10
1590;DHT22;788;48.720;9.158;2022-07-10T12:03:55;23.00;72.60
1590;DHT22;788;48.720;9.158;2022-07-10T12:06:23;23.50;70.30
1590;DHT22;788;48.720;9.158;2022-07-10T12:08:50;23.60;69.70
1590;DHT22;788;48.720;9.158;2022-07-10T12:11:19;23.40;68.30
1590;DHT22;788;48.720;9.158;2022-07-10T12:13:47;23.00;68.90
1590;DHT22;788;48.720;9.158;2022-07-10T12:16:15;22.90;68.80
1590;DHT22;788;48.720;9.158;2022-07-10T12:18:43;23.30;68.30
1590;DHT22;788;48.720;9.158;2022-07-10T12:21:10;23.30;65.60
1590;DHT22;788;48.720;9.158;2022-07-10T12:23:38;23.40;65.80
1590;DHT22;788;48.720;9.158;2022-07-10T12:26:08;23.70;65.00
1590;DHT22;788;48.720;9.158;2022-07-10T12:28:56;24.00;63.90
1590;DHT22;788;48.720;9.158;2022-07-10T12:31:27;23.90;61.60
1590;DHT22;788;48.720;9.158;2022-07-10T12:33:56;24.00;62.30
1590;DHT22;788;48.720;9.158;2022-07-10T12:36:40;24.30;62.80
1590;DHT22;788;48.720;9.158;2022-07-10T12:39:07;24.80;62.70
1590;DHT22;788;48.720;9.158;2022-07-10T12:41:34;24.70;58.00
1590;DHT22;788;48.720;9.158;2022-07-10T12:44:00;24.10;58.00
1590;DHT22;788;48.720;9.158;2022-07-10T12:46:29;23.80;59.50
1590;DHT22;788;48.720;9.158;2022-07-10T12:49:03;24.20;60.00
1590;DHT22;788;48.720;9.158;2022-07-10T12:51:32;24.60;59.60
1590;DHT22;788;48.720;9.158;2022-07-10T12:53:59;24.70;57.90
1590;DHT22;788;48.720;9.158;2022-07-10T12:56:34;24.60;58.00
1590;DHT22;788;48.720;9.158;2022-07-10T12:59:03;24.80;57.90
1590;DHT22;788;48.720;9.158;2022-07-10T13:01:41;24.80;57.10
1590;DHT22;788;48.720;9.158;2022-07-10T13:04:08;25.10;58.70
1590;DHT22;788;48.720;9.158;2022-07-10T13:06:37;24.80;57.40
1590;DHT22;788;48.720;9.158;2022-07-10T13:09:18;25.10;59.70
1590;DHT22;788;48.720;9.158;2022-07-10T13:11:45;25.10;56.60
1590;DHT22;788;48.720;9.158;2022-07-10T13:14:12;25.00;56.20
1590;DHT22;788;48.720;9.158;2022-07-10T13:16:41;24.80;57.00
1590;DHT22;788;48.720;9.158;2022-07-10T13:19:08;24.90;56.40
1590;DHT22;788;48.720;9.158;2022-07-10T13:21:35;25.00;56.90
1590;DHT22;788;48.720;9.158;2022-07-10T13:24:02;25.40;57.00
1590;DHT22;788;48.720;9.158;2022-07-10T13:26:29;25.80;56.20
1590;DHT22;788;48.720;9.158;2022-07-10T13:28:56;26.10;56.10
1590;DHT22;788;48.720;9.158;2022-07-10T13:31:24;26.50;53.90
1590;DHT22;788;48.720;9.158;2022-07-10T13:33:52;26.70;52.70
1590;DHT22;788;48.720;9.158;2022-07-10T13:36:19;26.80;52.50
1590;DHT22;788;48.720;9.158;2022-07-10T13:38:47;26.80;51.90
1590;DHT22;788;48.720;9.158;2022-07-10T13:41:15;27.40;52.90
1590;DHT22;788;48.720;9.158;2022-07-10T13:43:42;27.60;50.00
1590;DHT22;788;48.720;9.158;2022-07-10T13:46:08;27.50;50.30
1590;DHT22;788;48.720;9.158;2022-07-10T13:48:35;27.00;50.40
1590;DHT22;788;48.720;9.158;2022-07-10T13:51:04;27.30;50.20
1590;DHT22;788;48.720;9.158;2022-07-10T13:53:30;27.50;49.70
1590;DHT22;788;48.720;9.158;2022-07-10T13:59:20;28.30;49.30
1590;DHT22;788;48.720;9.158;2022-07-10T14:01:46;28.20;48.50
1590;DHT22;788;48.720;9.158;2022-07-10T14:04:13;27.90;49.00
1590;DHT22;788;48.720;9.158;2022-07-10T14:06:41;27.70;49.00
1590;DHT22;788;48.720;9.158;2022-07-10T14:09:08;26.60;49.30
1590;DHT22;788;48.720;9.158;2022-07-10T14:11:35;26.20;50.70
1590;DHT22;788;48.720;9.158;2022-07-10T14:14:02;26.10;51.20
1590;DHT22;788;48.720;9.158;2022-07-10T14:16:28;26.10;51.30
1590;DHT22;788;48.720;9.158;2022-07-10T14:18:58;25.70;51.30
1590;DHT22;788;48.720;9.158;2022-07-10T14:21:25;26.00;52.20
1590;DHT22;788;48.720;9.158;2022-07-10T14:23:54;25.80;51.40
1590;DHT22;788;48.720;9.158;2022-07-10T14:26:21;25.60;51.70
1590;DHT22;788;48.720;9.158;2022-07-10T14:28:49;25.40;53.20
1590;DHT22;788;48.720;9.158;2022-07-10T14:31:16;24.80;52.50
1590;DHT22;788;48.720;9.158;2022-07-10T14:33:43;24.80;53.50
1590;DHT22;788;48.720;9.158;2022-07-10T14:36:10;25.30;52.70
1590;DHT22;788;48.720;9.158;2022-07-10T14:38:37;26.10;52.60
1590;DHT22;788;48.720;9.158;2022-07-10T14:41:05;26.90;51.60
1590;DHT22;788;48.720;9.158;2022-07-10T14:43:32;27.60;50.20
1590;DHT22;788;48.720;9.158;2022-07-10T14:45:59;27.70;48.60
1590;DHT22;788;48.720;9.158;2022-07-10T14:48:28;27.90;48.90
1590;DHT22;788;48.720;9.158;2022-07-10T14:50:55;27.70;48.70
1590;DHT22;788;48.720;9.158;2022-07-10T14:53:23;27.50;48.90
1590;DHT22;788;48.720;9.158;2022-07-10T14:55:49;27.50;48.40
1590;DHT22;788;48.720;9.158;2022-07-10T14:58:18;27.80;48.30
1590;DHT22;788;48.720;9.158;2022-07-10T15:00:45;27.50;48.20
1590;DHT22;788;48.720;9.158;2022-07-10T15:03:11;26.70;48.00
1590;DHT22;788;48.720;9.158;2022-07-10T15:05:38;26.20;49.10
1590;DHT22;788;48.720;9.158;2022-07-10T15:08:05;26.20;49.80
1590;DHT22;788;48.720;9.158;2022-07-10T15:10:32;26.50;49.10
1590;DHT22;788;48.720;9.158;2022-07-10T15:12:58;26.60;49.50
1590;DHT22;788;48.720;9.158;2022-07-10T15:15:31;27.30;49.30
1590;DHT22;788;48.720;9.158;2022-07-10T15:17:58;27.80;47.50
1590;DHT22;788;48.720;9.158;2022-07-10T15:20:24;28.50;48.20
1590;DHT22;788;48.720;9.158;2022-07-10T15:22:51;29.20;46.00
1590;DHT22;788;48.720;9.158;2022-07-10T15:25:18;28.80;45.20
1590;DHT22;788;48.720;9.158;2022-07-10T15:27:44;28.20;45.50
1590;DHT22;788;48.720;9.158;2022-07-10T15:30:12;27.50;46.30
1590;DHT22;788;48.720;9.158;2022-07-10T15:32:41;27.20;47.30
1590;DHT22;788;48.720;9.158;2022-07-10T15:35:08;27.60;46.90
1590;DHT22;788;48.720;9.158;2022-07-10T15:37:36;27.60;46.80
1590;DHT22;788;48.720;9.158;2022-07-10T15:40:04;28.30;47.70
1590;DHT22;788;48.720;9.158;2022-07-10T15:42:30;29.50;46.50
1590;DHT22;788;48.720;9.158;2022-07-10T15:44:57;29.30;43.70
1590;DHT22;788;48.720;9.158;2022-07-10T15:47:24;28.10;44.10
1590;DHT22;788;48.720;9.158;2022-07-10T15:49:52;27.20;46.30
1590;DHT22;788;48.720;9.158;2022-07-10T15:52:19;26.90;46.30
1590;DHT22;788;48.720;9.158;2022-07-10T15:54:46;26.90;47.40
1590;DHT22;788;48.720;9.158;2022-07-10T15:57:13;27.10;46.30
1590;DHT22;788;48.720;9.158;2022-07-10T15:59:40;26.90;46.60
1590;DHT22;788;48.720;9.158;2022-07-10T16:02:08;27.20;46.70
1590;DHT22;788;48.720;9.158;2022-07-10T16:04:36;27.40;45.70
1590;DHT22;788;48.720;9.158;2022-07-10T16:07:05;27.90;45.60
1590;DHT22;788;48.720;9.158;2022-07-10T16:09:32;27.90;44.50
1590;DHT22;788;48.720;9.158;2022-07-10T16:11:59;27.00;46.10
1590;DHT22;788;48.720;9.158;2022-07-10T16:14:26;27.00;45.90
1590;DHT22;788;48.720;9.158;2022-07-10T16:16:53;26.90;45.40
1590;DHT22;788;48.720;9.158;2022-07-10T16:19:21;26.50;46.30
1590;DHT22;788;48.720;9.158;2022-07-10T16:21:47;25.90;46.60
1590;DHT22;788;48.720;9.158;2022-07-10T16:24:16;25.60;47.50
1590;DHT22;788;48.720;9.158;2022-07-10T16:26:42;26.10;47.70
1590;DHT22;788;48.720;9.158;2022-07-10T16:29:09;26.20;47.00